SBBE/BEL METAR and TAF weather

Enter ICAO airport designator
Station Type Date Time Source
SBBE METAR 2019/06/18 04:00 UTC NOAA

SBBE 180400Z 08003KT 9999 FEW010 SCT040 24/23 Q1015


Station Type Date Time Source
SBBE Decoded METAR 2019/06/18 04:00 UTC NOAA

Belem Aeroporto , Brazil (SBBE) 01-23S 048-29W 16M
Jun 18, 2019 - 12:00 AM EDT / 2019.06.18 0400 UTC
Wind: from the E (080 degrees) at 3 MPH (3 KT):0
Visibility: greater than 7 mile(s):0
Sky conditions: partly cloudy
Temperature: 75 F (24 C)
Dew Point: 73 F (23 C)
Relative Humidity: 94%
Pressure (altimeter): 29.97 in. Hg (1015 hPa)
ob: SBBE 180400Z 08003KT 9999 FEW010 SCT040 24/23 Q1015
cycle: 4

Station Type Date Time Source
SBBE TAF 2019/06/18 06:48 UTC NOAA

TAF TAF SBBE 180330Z 1806/1906 08005KT CAVOK TN24/1808Z TX32/1817Z
BECMG 1809/1811 SCT020
BECMG 1818/1820 10007KT BKN030
BECMG 1821/1823 08010KT RA SCT030 FEW035TCU
BECMG 1901/1903 06005KT NSW SCT020
BECMG 1904/1906 FEW020
RMK PFV

Example: see airport list